createdAt,value
2019-05-16T00:00:02.704Z,9.00
2019-05-16T00:02:29.635Z,9.00
2019-05-16T00:04:59.160Z,9.00
2019-05-16T00:07:24.664Z,8.90
2019-05-16T00:09:51.596Z,8.80
2019-05-16T00:12:18.955Z,8.90
2019-05-16T00:14:45.876Z,8.90
2019-05-16T00:17:12.825Z,8.80
2019-05-16T00:19:39.745Z,8.70
2019-05-16T00:22:08.558Z,8.70
2019-05-16T00:24:33.637Z,8.10
2019-05-16T00:27:00.600Z,8.40
2019-05-16T00:29:27.783Z,8.40
2019-05-16T00:31:54.470Z,8.40
2019-05-16T00:34:21.417Z,8.30
2019-05-16T00:36:48.795Z,8.30
2019-05-16T00:39:15.253Z,8.30
2019-05-16T00:41:42.165Z,8.20
2019-05-16T00:44:09.139Z,8.10
2019-05-16T00:46:38.362Z,8.00
2019-05-16T00:49:03.018Z,7.90
2019-05-16T00:51:30.164Z,7.80
2019-05-16T00:53:58.853Z,8.00
2019-05-16T00:56:24.523Z,7.90
2019-05-16T00:58:51.468Z,7.80
2019-05-16T01:01:18.971Z,7.80
2019-05-16T01:03:45.452Z,7.70
2019-05-16T01:06:19.077Z,7.70
2019-05-16T01:08:40.531Z,7.60
2019-05-16T01:11:07.932Z,7.60
2019-05-16T01:13:34.352Z,7.60
2019-05-16T01:16:01.311Z,7.60
2019-05-16T01:18:28.861Z,7.60
2019-05-16T01:20:55.167Z,7.70
2019-05-16T01:23:22.096Z,7.60
2019-05-16T01:25:49.028Z,7.50
2019-05-16T01:28:17.823Z,7.50
2019-05-16T01:30:42.886Z,7.40
2019-05-16T01:33:09.808Z,7.40
2019-05-16T01:35:38.598Z,7.40
2019-05-16T01:38:03.974Z,7.30
2019-05-16T01:40:30.883Z,7.30
2019-05-16T01:42:57.913Z,7.20
2019-05-16T01:45:24.754Z,7.20
2019-05-16T01:47:51.676Z,7.20
2019-05-16T01:50:18.591Z,7.10
2019-05-16T01:52:45.544Z,7.20
2019-05-16T01:55:12.461Z,7.10
2019-05-16T01:57:39.413Z,7.10
2019-05-16T02:00:08.379Z,7.00
2019-05-16T02:02:33.296Z,7.10
2019-05-16T02:05:00.221Z,7.10
2019-05-16T02:07:28.335Z,7.10
2019-05-16T02:09:54.557Z,7.20
2019-05-16T02:12:21.500Z,7.20
2019-05-16T02:14:48.445Z,7.20
2019-05-16T02:17:18.151Z,7.10
2019-05-16T02:19:42.316Z,7.10
2019-05-16T02:22:09.249Z,7.80
2019-05-16T02:24:38.407Z,7.00
2019-05-16T02:27:03.093Z,7.20
2019-05-16T02:29:30.037Z,7.10
2019-05-16T02:31:56.972Z,6.70
2019-05-16T02:34:23.902Z,7.00
2019-05-16T02:37:10.343Z,6.90
2019-05-16T02:39:20.940Z,6.90
2019-05-16T02:41:46.182Z,7.00
2019-05-16T02:44:12.261Z,6.90
2019-05-16T02:46:41.814Z,6.90
2019-05-16T02:49:05.827Z,5.80
2019-05-16T02:51:32.771Z,6.80
2019-05-16T02:54:01.374Z,6.90
2019-05-16T02:56:26.622Z,6.80
2019-05-16T02:58:53.570Z,6.70
2019-05-16T03:01:21.683Z,6.80
2019-05-16T03:03:47.437Z,6.70
2019-05-16T03:06:14.363Z,6.70
2019-05-16T03:08:42.055Z,6.70
2019-05-16T03:11:11.839Z,6.50
2019-05-16T03:13:35.948Z,6.50
2019-05-16T03:16:02.887Z,6.60
2019-05-16T03:18:31.068Z,6.60
2019-05-16T03:20:56.769Z,6.60
2019-05-16T03:23:23.712Z,6.60
2019-05-16T03:25:50.889Z,6.60
2019-05-16T03:28:17.574Z,6.60
2019-05-16T03:30:45.420Z,6.60
2019-05-16T03:33:19.513Z,6.60
2019-05-16T03:35:44.015Z,4.00
2019-05-16T03:38:06.037Z,6.50
2019-05-16T03:40:32.408Z,6.50
2019-05-16T03:43:01.312Z,6.50
2019-05-16T03:45:26.221Z,7.00
2019-05-16T03:47:53.171Z,6.60
2019-05-16T03:50:21.745Z,6.60
2019-05-16T03:52:50.163Z,6.60
2019-05-16T03:55:13.991Z,6.60
2019-05-16T03:57:41.888Z,6.50
2019-05-16T04:00:11.406Z,6.60
2019-05-16T04:02:35.265Z,5.40
2019-05-16T04:05:02.568Z,6.30
2019-05-16T04:07:31.773Z,6.40
2019-05-16T04:09:57.864Z,6.30
2019-05-16T04:12:24.833Z,6.30
2019-05-16T04:14:51.767Z,6.40
2019-05-16T04:17:21.083Z,6.60
2019-05-16T04:19:45.664Z,6.60
2019-05-16T04:22:13.419Z,6.60
2019-05-16T04:24:41.849Z,6.70
2019-05-16T04:27:07.329Z,6.80
2019-05-16T04:29:34.257Z,6.90
2019-05-16T04:32:07.110Z,7.10
2019-05-16T04:34:33.977Z,7.40
2019-05-16T04:37:01.343Z,7.30
2019-05-16T04:39:31.567Z,6.90
2019-05-16T04:41:54.793Z,6.80
2019-05-16T04:44:21.730Z,6.80
2019-05-16T04:46:50.966Z,6.90
2019-05-16T04:49:15.644Z,7.00
2019-05-16T04:51:42.589Z,6.90
2019-05-16T04:54:11.482Z,7.00
2019-05-16T04:56:36.513Z,7.10
2019-05-16T04:59:03.449Z,7.30
2019-05-16T05:01:30.815Z,7.40
2019-05-16T05:04:06.175Z,7.30
2019-05-16T05:06:24.262Z,7.20
2019-05-16T05:08:58.339Z,7.10
2019-05-16T05:11:21.275Z,7.20
2019-05-16T05:13:45.219Z,7.30
2019-05-16T05:16:12.163Z,7.30
2019-05-16T05:18:40.854Z,7.30
2019-05-16T05:21:06.066Z,7.50
2019-05-16T05:23:33.033Z,7.40
2019-05-16T05:26:00.482Z,7.40
2019-05-16T05:28:26.938Z,9.80
2019-05-16T05:30:53.877Z,7.40
2019-05-16T05:33:21.361Z,7.40
2019-05-16T05:35:50.342Z,8.50
2019-05-16T05:38:14.704Z,7.40
2019-05-16T05:40:41.676Z,7.50
2019-05-16T05:43:10.630Z,7.60
2019-05-16T05:45:35.532Z,7.70
2019-05-16T05:48:02.502Z,7.80
2019-05-16T05:50:30.691Z,7.80
2019-05-16T05:52:56.367Z,8.00
2019-05-16T05:55:23.349Z,8.10
2019-05-16T05:57:50.821Z,8.00
2019-05-16T06:00:17.252Z,9.00
2019-05-16T06:02:44.173Z,8.00
2019-05-16T06:05:11.109Z,7.90
2019-05-16T06:07:40.185Z,7.90
2019-05-16T06:10:05.712Z,7.50
2019-05-16T06:12:34.405Z,8.20
2019-05-16T06:15:07.707Z,8.30
2019-05-16T06:17:30.533Z,8.40
2019-05-16T06:19:55.246Z,8.50
2019-05-16T06:22:22.185Z,8.60
2019-05-16T06:24:50.488Z,8.70
2019-05-16T06:27:16.146Z,8.90
2019-05-16T06:29:43.072Z,9.10
2019-05-16T06:32:10.368Z,7.10
2019-05-16T06:34:36.960Z,9.30
2019-05-16T06:37:03.904Z,9.20
2019-05-16T06:39:41.271Z,9.50
2019-05-16T06:42:00.399Z,9.60
2019-05-16T06:44:24.813Z,9.60
2019-05-16T06:47:08.348Z,9.60
2019-05-16T06:49:19.687Z,9.10
2019-05-16T06:51:45.853Z,9.70
2019-05-16T06:54:12.819Z,9.60
2019-05-16T06:56:40.207Z,9.90
2019-05-16T06:59:06.677Z,9.90
2019-05-16T07:01:33.616Z,9.90
2019-05-16T07:04:00.535Z,10.00
2019-05-16T07:06:50.914Z,10.00
2019-05-16T07:08:54.472Z,10.30
2019-05-16T07:11:21.407Z,10.30
2019-05-16T07:13:51.863Z,10.30
2019-05-16T07:16:16.016Z,10.30
2019-05-16T07:18:42.940Z,10.30
2019-05-16T07:21:10.836Z,10.50
2019-05-16T07:23:36.814Z,10.70
2019-05-16T07:26:03.748Z,10.80
2019-05-16T07:28:30.674Z,10.80
2019-05-16T07:30:57.604Z,11.00
2019-05-16T07:33:24.544Z,11.10
2019-05-16T07:35:51.709Z,11.10
2019-05-16T07:38:20.229Z,11.20
2019-05-16T07:40:45.310Z,11.20
2019-05-16T07:43:12.208Z,11.30
2019-05-16T07:45:40.722Z,11.30
2019-05-16T07:48:06.140Z,11.40
2019-05-16T07:50:33.069Z,11.50
2019-05-16T07:53:00.084Z,9.40
2019-05-16T07:55:26.952Z,11.60
2019-05-16T07:57:53.920Z,11.60
2019-05-16T08:00:21.880Z,11.80
2019-05-16T08:02:50.416Z,11.80
2019-05-16T08:05:14.853Z,11.90
2019-05-16T08:07:41.869Z,12.00
2019-05-16T08:10:10.615Z,12.00
2019-05-16T08:12:35.768Z,12.10
2019-05-16T08:15:03.309Z,12.40
2019-05-16T08:17:31.451Z,12.40
2019-05-16T08:19:59.849Z,12.40
2019-05-16T08:22:24.587Z,12.40
2019-05-16T08:24:51.543Z,12.40
2019-05-16T08:27:20.806Z,12.40
2019-05-16T08:29:45.424Z,12.40
2019-05-16T08:32:12.368Z,12.50
2019-05-16T08:34:40.859Z,12.70
2019-05-16T08:37:29.506Z,10.90
2019-05-16T08:39:33.260Z,11.60
2019-05-16T08:42:07.821Z,12.70
2019-05-16T08:44:27.123Z,10.80
2019-05-16T08:46:57.923Z,12.70
2019-05-16T08:49:22.133Z,12.70
2019-05-16T08:51:52.146Z,12.70
2019-05-16T08:54:14.964Z,12.90
2019-05-16T08:56:44.160Z,12.60
2019-05-16T08:59:13.206Z,12.80
2019-05-16T09:01:35.711Z,13.10
2019-05-16T09:04:02.715Z,13.40
2019-05-16T09:06:32.318Z,13.50
2019-05-16T09:09:02.858Z,13.70
2019-05-16T09:11:38.720Z,13.90
2019-05-16T09:13:50.674Z,13.80
2019-05-16T09:16:18.330Z,13.90
2019-05-16T09:18:46.099Z,14.30
2019-05-16T09:21:11.710Z,14.50
2019-05-16T09:23:38.678Z,13.60
2019-05-16T09:26:07.340Z,15.00
2019-05-16T09:28:32.548Z,14.90
2019-05-16T09:30:59.473Z,14.90
2019-05-16T09:33:27.070Z,15.20
2019-05-16T09:35:53.337Z,15.20
2019-05-16T09:38:25.353Z,16.80
2019-05-16T09:40:48.145Z,15.10
2019-05-16T09:43:17.498Z,14.90
2019-05-16T09:45:41.125Z,13.70
2019-05-16T09:48:08.295Z,15.40
2019-05-16T09:50:37.746Z,16.70
2019-05-16T09:53:01.947Z,15.60
2019-05-16T09:55:28.909Z,15.70
2019-05-16T09:57:58.460Z,16.00
2019-05-16T10:00:22.831Z,16.10
2019-05-16T10:02:49.807Z,16.20
2019-05-16T10:05:16.978Z,16.30
2019-05-16T10:07:43.690Z,16.80
2019-05-16T10:10:10.623Z,16.80
2019-05-16T10:12:37.556Z,16.70
2019-05-16T10:15:07.277Z,17.30
2019-05-16T10:17:31.618Z,17.50
2019-05-16T10:20:00.270Z,17.40
2019-05-16T10:22:27.239Z,17.40
2019-05-16T10:24:52.455Z,17.50
2019-05-16T10:27:19.400Z,17.70
2019-05-16T10:29:48.431Z,17.80
2019-05-16T10:32:13.272Z,17.80
2019-05-16T10:34:40.326Z,17.80
2019-05-16T10:37:07.294Z,17.30
2019-05-16T10:39:34.227Z,17.60
2019-05-16T10:42:01.175Z,17.30
2019-05-16T10:44:28.525Z,17.30
2019-05-16T10:46:55.017Z,17.20
2019-05-16T10:49:36.492Z,17.20
2019-05-16T10:51:48.974Z,17.30
2019-05-16T10:54:18.362Z,15.20
2019-05-16T10:56:43.165Z,17.40
2019-05-16T10:59:48.768Z,17.30
2019-05-16T11:01:37.040Z,17.20
2019-05-16T11:04:04.028Z,17.20
2019-05-16T11:06:30.922Z,17.30
2019-05-16T11:08:57.845Z,17.40
2019-05-16T11:11:27.096Z,17.40
2019-05-16T11:13:51.741Z,17.50
2019-05-16T11:16:18.673Z,17.90
2019-05-16T11:18:45.784Z,17.90
2019-05-16T11:21:12.723Z,18.30
2019-05-16T11:23:39.648Z,18.40
2019-05-16T11:26:06.773Z,18.60
2019-05-16T11:28:36.474Z,18.60
2019-05-16T11:31:03.850Z,18.50
2019-05-16T11:33:28.358Z,18.40
2019-05-16T11:35:54.573Z,18.30
2019-05-16T11:38:21.529Z,18.30
2019-05-16T11:40:48.480Z,18.60
2019-05-16T11:43:20.810Z,18.80
2019-05-16T11:45:42.970Z,19.20
2019-05-16T11:48:09.913Z,19.80
2019-05-16T11:50:37.379Z,20.20
2019-05-16T11:53:03.865Z,19.90
2019-05-16T11:55:34.203Z,19.30
2019-05-16T11:57:57.687Z,19.10
2019-05-16T12:00:30.079Z,18.90
2019-05-16T12:02:51.590Z,18.80
2019-05-16T12:05:18.519Z,18.50
2019-05-16T12:07:48.271Z,18.60
2019-05-16T12:10:12.410Z,18.60
2019-05-16T12:12:39.388Z,18.70
2019-05-16T12:15:07.834Z,20.30
2019-05-16T12:17:33.226Z,18.60
2019-05-16T12:20:00.609Z,17.40
2019-05-16T12:22:27.509Z,18.50
2019-05-16T12:24:57.254Z,18.40
2019-05-16T12:27:21.442Z,18.50
2019-05-16T12:29:54.817Z,18.80
2019-05-16T12:32:17.101Z,18.70
2019-05-16T12:34:42.480Z,18.80
2019-05-16T12:37:09.396Z,18.90
2019-05-16T12:39:37.855Z,19.10
2019-05-16T12:42:03.273Z,19.10
2019-05-16T12:44:30.196Z,19.10
2019-05-16T12:46:57.157Z,19.50
2019-05-16T12:49:24.088Z,19.50
2019-05-16T12:51:51.026Z,19.30
2019-05-16T12:54:18.360Z,19.20
2019-05-16T12:56:47.939Z,19.20
2019-05-16T12:59:12.277Z,18.30
2019-05-16T13:01:38.786Z,18.80
2019-05-16T13:04:05.700Z,19.00
2019-05-16T13:06:32.641Z,19.20
2019-05-16T13:08:59.598Z,19.30
2019-05-16T13:11:27.098Z,19.30
2019-05-16T13:14:03.263Z,19.10
2019-05-16T13:16:20.441Z,19.50
2019-05-16T13:18:47.557Z,19.70
2019-05-16T13:21:17.999Z,19.80
2019-05-16T13:23:42.215Z,19.90
2019-05-16T13:26:09.139Z,19.80
2019-05-16T13:28:37.820Z,19.80
2019-05-16T13:31:03.041Z,19.60
2019-05-16T13:33:29.993Z,18.10
2019-05-16T13:35:57.764Z,18.10
2019-05-16T13:38:23.864Z,19.30
2019-05-16T13:40:50.835Z,19.20
2019-05-16T13:43:17.788Z,19.10
2019-05-16T13:45:46.907Z,17.90
2019-05-16T13:48:11.728Z,19.10
2019-05-16T13:50:39.902Z,19.10
2019-05-16T13:53:07.873Z,17.50
2019-05-16T13:55:32.596Z,19.10
2019-05-16T13:57:59.524Z,19.10
2019-05-16T14:00:27.984Z,19.00
2019-05-16T14:02:53.407Z,18.90
2019-05-16T14:05:20.325Z,19.00
2019-05-16T14:07:48.036Z,19.00
2019-05-16T14:10:14.222Z,18.90
2019-05-16T14:12:41.148Z,18.80
2019-05-16T14:15:08.335Z,18.90
2019-05-16T14:17:37.105Z,18.80
2019-05-16T14:20:02.239Z,18.60
2019-05-16T14:22:29.374Z,18.60
2019-05-16T14:24:57.040Z,18.70
2019-05-16T14:27:23.220Z,18.80
2019-05-16T14:29:50.199Z,18.60
2019-05-16T14:32:19.692Z,18.50
2019-05-16T14:34:48.002Z,18.60
2019-05-16T14:37:11.011Z,18.70
2019-05-16T14:39:38.870Z,18.60
2019-05-16T14:42:04.875Z,18.50
2019-05-16T14:44:31.833Z,18.40
2019-05-16T14:46:58.781Z,18.50
2019-05-16T14:49:28.493Z,18.30
2019-05-16T14:51:52.661Z,18.30
2019-05-16T14:54:19.586Z,18.40
2019-05-16T14:56:47.571Z,17.30
2019-05-16T14:59:13.480Z,18.30
2019-05-16T15:01:40.412Z,18.30
2019-05-16T15:04:07.527Z,17.60
2019-05-16T15:06:37.289Z,18.20
2019-05-16T15:09:01.245Z,17.90
2019-05-16T15:11:28.331Z,18.00
2019-05-16T15:13:57.348Z,17.80
2019-05-16T15:16:22.100Z,17.90
2019-05-16T15:18:49.035Z,17.90
2019-05-16T15:21:17.618Z,16.70
2019-05-16T15:23:43.344Z,18.00
2019-05-16T15:26:10.272Z,17.90
2019-05-16T15:28:37.715Z,17.50
2019-05-16T15:31:04.207Z,17.80
2019-05-16T15:33:31.122Z,17.90
2019-05-16T15:35:58.077Z,17.90
2019-05-16T15:38:26.999Z,18.00
2019-05-16T15:40:52.017Z,17.90
2019-05-16T15:43:18.986Z,17.90
2019-05-16T15:45:49.829Z,17.80
2019-05-16T15:48:12.846Z,17.90
2019-05-16T15:50:39.850Z,17.90
2019-05-16T15:53:07.969Z,19.50
2019-05-16T15:55:36.185Z,17.80
2019-05-16T15:58:00.735Z,17.70
2019-05-16T16:00:47.493Z,17.50
2019-05-16T16:03:11.289Z,17.50
2019-05-16T16:05:38.205Z,17.40
2019-05-16T16:08:06.929Z,17.30
2019-05-16T16:10:37.171Z,17.30
2019-05-16T16:13:01.806Z,17.30
2019-05-16T16:15:28.721Z,17.20
2019-05-16T16:17:57.379Z,16.90
2019-05-16T16:20:22.606Z,15.90
2019-05-16T16:22:49.576Z,17.00
2019-05-16T16:25:17.518Z,16.90
2019-05-16T16:27:43.782Z,15.10
2019-05-16T16:30:10.716Z,16.90
2019-05-16T16:32:38.751Z,16.90
2019-05-16T16:35:07.991Z,16.90
2019-05-16T16:37:32.598Z,17.00
2019-05-16T16:39:59.603Z,16.80
2019-05-16T16:42:27.229Z,16.80
2019-05-16T16:44:53.470Z,16.70
2019-05-16T16:47:20.416Z,16.60
2019-05-16T16:49:47.388Z,16.50
2019-05-16T16:52:16.554Z,16.50
2019-05-16T16:54:41.256Z,16.40
2019-05-16T16:57:08.205Z,15.90
2019-05-16T16:59:37.055Z,16.40
2019-05-16T17:02:03.292Z,16.30
2019-05-16T17:04:30.257Z,16.30
2019-05-16T17:06:57.180Z,16.30
2019-05-16T17:09:24.165Z,16.30
2019-05-16T17:11:51.407Z,16.40
2019-05-16T17:14:18.319Z,16.30
2019-05-16T17:16:47.373Z,16.30
2019-05-16T17:19:12.243Z,16.30
2019-05-16T17:21:39.277Z,16.30
2019-05-16T17:24:06.480Z,16.30
2019-05-16T17:26:33.347Z,16.20
2019-05-16T17:29:00.270Z,16.20
2019-05-16T17:31:27.229Z,16.20
2019-05-16T17:33:57.525Z,16.10
2019-05-16T17:36:21.097Z,16.10
2019-05-16T17:38:48.052Z,15.50
2019-05-16T17:41:16.826Z,16.00
2019-05-16T17:43:41.945Z,16.00
2019-05-16T17:46:08.914Z,16.10
2019-05-16T17:48:38.074Z,16.00
2019-05-16T17:51:02.809Z,15.90
2019-05-16T17:53:29.774Z,15.60
2019-05-16T17:55:57.320Z,15.90
2019-05-16T17:58:23.647Z,15.90
2019-05-16T18:00:50.585Z,15.90
2019-05-16T18:03:17.671Z,15.80
2019-05-16T18:05:44.500Z,15.80
2019-05-16T18:08:11.472Z,15.70
2019-05-16T18:10:38.405Z,15.60
2019-05-16T18:13:07.449Z,15.60
2019-05-16T18:15:32.297Z,15.50
2019-05-16T18:17:59.241Z,15.50
2019-05-16T18:20:26.631Z,15.50
2019-05-16T18:22:53.195Z,15.40
2019-05-16T18:25:20.126Z,15.50
2019-05-16T18:27:48.389Z,15.50
2019-05-16T18:30:16.784Z,14.70
2019-05-16T18:32:42.256Z,15.50
2019-05-16T18:35:09.214Z,15.40
2019-05-16T18:37:36.172Z,15.40
2019-05-16T18:40:03.253Z,15.40
2019-05-16T18:42:30.181Z,15.40
2019-05-16T18:44:57.145Z,14.00
2019-05-16T18:47:24.092Z,15.40
2019-05-16T18:49:51.029Z,15.40
2019-05-16T18:52:17.974Z,15.40
2019-05-16T18:54:46.610Z,15.30
2019-05-16T18:57:11.851Z,15.30
2019-05-16T18:59:38.851Z,15.20
2019-05-16T19:02:09.774Z,15.30
2019-05-16T19:04:32.713Z,15.20
2019-05-16T19:06:59.797Z,12.60
2019-05-16T19:09:26.860Z,16.60
2019-05-16T19:11:53.924Z,14.70
2019-05-16T19:14:20.878Z,15.10
2019-05-16T19:16:49.241Z,15.10
2019-05-16T19:19:16.176Z,15.00
2019-05-16T19:21:41.946Z,14.90
2019-05-16T19:24:08.950Z,15.00
2019-05-16T19:26:37.360Z,15.00
2019-05-16T19:29:03.061Z,15.00
2019-05-16T19:31:29.982Z,15.00
2019-05-16T19:33:56.932Z,15.00
2019-05-16T19:36:23.901Z,14.90
2019-05-16T19:38:50.865Z,15.00
2019-05-16T19:41:17.792Z,14.90
2019-05-16T19:43:46.639Z,14.90
2019-05-16T19:46:11.787Z,14.90
2019-05-16T19:48:38.721Z,14.90
2019-05-16T19:51:07.369Z,15.00
2019-05-16T19:53:32.573Z,14.80
2019-05-16T19:55:59.516Z,14.80
2019-05-16T19:58:26.779Z,14.70
2019-05-16T20:00:53.424Z,14.60
2019-05-16T20:03:20.359Z,14.50
2019-05-16T20:05:47.695Z,14.40
2019-05-16T20:08:14.293Z,14.30
2019-05-16T20:10:41.233Z,14.20
2019-05-16T20:13:08.172Z,14.10
2019-05-16T20:15:36.645Z,14.10
2019-05-16T20:18:02.101Z,14.00
2019-05-16T20:20:29.032Z,14.00
2019-05-16T20:22:56.679Z,13.80
2019-05-16T20:25:22.912Z,12.30
2019-05-16T20:27:49.859Z,13.60
2019-05-16T20:30:17.324Z,13.60
2019-05-16T20:32:44.298Z,13.60
2019-05-16T20:35:11.242Z,13.10
2019-05-16T20:37:38.157Z,13.50
2019-05-16T20:40:08.530Z,13.40
2019-05-16T20:42:32.043Z,13.40
2019-05-16T20:44:58.965Z,13.30
2019-05-16T20:47:27.153Z,13.20
2019-05-16T20:49:52.895Z,13.20
2019-05-16T20:52:19.848Z,13.20
2019-05-16T20:54:49.849Z,13.20
2019-05-16T20:57:13.732Z,13.10
2019-05-16T20:59:40.674Z,13.10
2019-05-16T21:02:07.620Z,12.30
2019-05-16T21:04:34.577Z,15.20
2019-05-16T21:07:09.976Z,14.30
2019-05-16T21:09:28.466Z,13.00
2019-05-16T21:11:56.933Z,13.10
2019-05-16T21:14:22.376Z,12.40
2019-05-16T21:16:49.616Z,12.70
2019-05-16T21:19:16.574Z,12.90
2019-05-16T21:21:43.500Z,12.90
2019-05-16T21:24:10.481Z,12.90
2019-05-16T21:26:37.413Z,12.80
2019-05-16T21:29:04.366Z,12.70
2019-05-16T21:31:32.658Z,12.70
2019-05-16T21:33:59.596Z,12.70
2019-05-16T21:36:27.406Z,12.60
2019-05-16T21:38:53.577Z,12.60
2019-05-16T21:41:20.527Z,12.50
2019-05-16T21:43:47.473Z,12.50
2019-05-16T21:46:14.415Z,12.40
2019-05-16T21:48:41.375Z,11.50
2019-05-16T21:51:08.325Z,12.40
2019-05-16T21:53:36.710Z,12.40
2019-05-16T21:56:02.210Z,12.40
2019-05-16T21:58:29.448Z,12.40
2019-05-16T22:00:56.720Z,12.20
2019-05-16T22:03:23.040Z,12.20
2019-05-16T22:05:49.968Z,11.40
2019-05-16T22:08:16.975Z,12.20
2019-05-16T22:10:43.857Z,12.00
2019-05-16T22:13:10.782Z,12.10
2019-05-16T22:15:37.720Z,10.90
2019-05-16T22:18:07.005Z,12.00
2019-05-16T22:20:31.696Z,12.00
2019-05-16T22:22:58.636Z,12.00
2019-05-16T22:25:27.303Z,11.90
2019-05-16T22:27:52.521Z,11.80
2019-05-16T22:30:19.444Z,11.90
2019-05-16T22:32:47.071Z,11.80
2019-05-16T22:35:14.028Z,11.80
2019-05-16T22:37:52.003Z,11.60
2019-05-16T22:40:07.889Z,11.60
2019-05-16T22:42:37.273Z,11.60
2019-05-16T22:45:01.745Z,11.30
2019-05-16T22:47:28.684Z,11.50
2019-05-16T22:49:56.720Z,11.50
2019-05-16T22:52:22.589Z,11.40
2019-05-16T22:54:49.553Z,11.40
2019-05-16T22:57:17.576Z,11.30
2019-05-16T22:59:43.412Z,11.30
2019-05-16T23:02:11.840Z,11.20
2019-05-16T23:04:37.348Z,11.20
2019-05-16T23:07:04.324Z,11.20
2019-05-16T23:09:31.280Z,13.70
2019-05-16T23:11:58.212Z,11.20
2019-05-16T23:14:26.361Z,11.10
2019-05-16T23:16:52.090Z,11.10
2019-05-16T23:19:19.015Z,11.10
2019-05-16T23:21:47.470Z,11.00
2019-05-16T23:24:12.904Z,10.60
2019-05-16T23:26:39.859Z,10.90
2019-05-16T23:29:06.804Z,10.90
2019-05-16T23:31:33.778Z,10.80
2019-05-16T23:34:01.034Z,10.80
2019-05-16T23:36:27.972Z,10.80
2019-05-16T23:38:56.774Z,10.70
2019-05-16T23:41:21.854Z,11.00
2019-05-16T23:43:48.833Z,10.60
2019-05-16T23:46:16.551Z,10.60
2019-05-16T23:48:42.735Z,9.80
2019-05-16T23:51:09.654Z,10.60
2019-05-16T23:53:37.109Z,10.60
2019-05-16T23:56:03.572Z,10.50
2019-05-16T23:58:30.501Z,10.40
